createdAt,value
2022-09-23T00:01:25.377Z,76.70
2022-09-23T00:03:56.730Z,76.90
2022-09-23T00:06:34.281Z,77.30
2022-09-23T00:09:01.932Z,76.70
2022-09-23T00:11:30.729Z,76.90
2022-09-23T00:14:00.227Z,77.00
2022-09-23T00:16:34.376Z,76.90
2022-09-23T00:19:07.579Z,77.20
2022-09-23T00:21:35.068Z,77.20
2022-09-23T00:24:02.568Z,77.00
2022-09-23T00:26:29.799Z,77.00
2022-09-23T00:28:57.031Z,77.00
2022-09-23T00:31:27.414Z,77.00
2022-09-23T00:34:02.142Z,77.20
2022-09-23T00:36:32.279Z,77.20
2022-09-23T00:39:00.089Z,77.10
2022-09-23T00:41:27.903Z,77.30
2022-09-23T00:44:01.157Z,77.50
2022-09-23T00:46:39.500Z,77.60
2022-09-23T00:49:12.599Z,77.70
2022-09-23T00:52:12.205Z,78.00
2022-09-23T00:54:40.175Z,77.80
2022-09-23T00:57:08.540Z,77.90
2022-09-23T00:59:36.955Z,78.00
2022-09-23T01:02:06.021Z,78.10
2022-09-23T01:04:34.472Z,78.30
2022-09-23T01:07:01.644Z,78.10
2022-09-23T01:09:29.294Z,78.10
2022-09-23T01:12:24.359Z,78.20
2022-09-23T01:14:54.304Z,78.30
2022-09-23T01:17:27.445Z,78.30
2022-09-23T01:20:31.200Z,78.30
2022-09-23T01:23:23.379Z,78.90
2022-09-23T01:26:05.531Z,78.30
2022-09-23T01:28:54.554Z,78.30
2022-09-23T01:31:43.326Z,78.30
2022-09-23T01:34:31.219Z,78.30
2022-09-23T01:37:53.388Z,78.60
2022-09-23T01:40:44.470Z,78.90
2022-09-23T01:43:36.396Z,78.80
2022-09-23T01:46:19.838Z,78.80
2022-09-23T01:49:01.121Z,78.90
2022-09-23T01:51:39.180Z,79.00
2022-09-23T01:54:39.675Z,79.30
2022-09-23T01:57:28.104Z,79.40
2022-09-23T02:00:17.477Z,79.70
2022-09-23T02:02:57.722Z,79.80
2022-09-23T02:05:39.247Z,80.00
2022-09-23T02:08:16.646Z,80.40
2022-09-23T02:11:03.650Z,81.00
2022-09-23T02:13:40.136Z,80.20
2022-09-23T02:16:22.521Z,80.40
2022-09-23T02:19:07.320Z,80.40
2022-09-23T02:21:40.692Z,80.60
2022-09-23T02:24:29.170Z,80.80
2022-09-23T02:27:12.055Z,80.80
2022-09-23T02:29:57.231Z,81.00
2022-09-23T02:32:43.401Z,81.30
2022-09-23T02:35:42.639Z,81.40
2022-09-23T02:38:29.415Z,81.80
2022-09-23T02:41:06.980Z,81.70
2022-09-23T02:44:01.001Z,81.80
2022-09-23T02:46:32.797Z,82.10
2022-09-23T02:49:11.283Z,82.70
2022-09-23T02:51:40.592Z,82.90
2022-09-23T02:54:14.990Z,83.10
2022-09-23T02:56:42.454Z,83.90
2022-09-23T02:59:11.610Z,83.80
2022-09-23T03:02:06.652Z,83.70
2022-09-23T03:05:30.282Z,84.20
2022-09-23T03:08:22.891Z,84.60
2022-09-23T03:11:05.853Z,84.40
2022-09-23T03:13:46.375Z,84.30
2022-09-23T03:16:22.599Z,84.60
2022-09-23T03:19:38.484Z,84.60
2022-09-23T03:22:21.098Z,84.70
2022-09-23T03:24:54.017Z,84.70
2022-09-23T03:27:27.542Z,84.70
2022-09-23T03:29:56.852Z,84.80
2022-09-23T03:32:28.298Z,84.90
2022-09-23T03:35:01.140Z,84.90
2022-09-23T03:37:46.371Z,85.00
2022-09-23T03:40:43.574Z,85.10
2022-09-23T03:43:14.330Z,85.10
2022-09-23T03:45:42.719Z,85.10
2022-09-23T03:48:10.225Z,85.10
2022-09-23T03:50:39.230Z,85.10
2022-09-23T03:53:07.849Z,85.10
2022-09-23T03:55:35.704Z,85.00
2022-09-23T03:58:03.298Z,85.20
2022-09-23T04:00:30.530Z,86.10
2022-09-23T04:02:58.935Z,85.50
2022-09-23T04:05:28.189Z,85.50
2022-09-23T04:07:55.437Z,85.60
2022-09-23T04:10:23.066Z,85.70
2022-09-23T04:12:50.436Z,85.70
2022-09-23T04:15:17.902Z,85.70
2022-09-23T04:17:45.271Z,85.80
2022-09-23T04:20:12.613Z,86.00
2022-09-23T04:22:39.831Z,86.00
2022-09-23T04:25:08.002Z,86.10
2022-09-23T04:27:37.800Z,86.20
2022-09-23T04:30:06.535Z,86.30
2022-09-23T04:32:33.958Z,86.30
2022-09-23T04:35:01.226Z,86.30
2022-09-23T04:37:30.467Z,86.20
2022-09-23T04:39:57.820Z,86.30
2022-09-23T04:42:28.902Z,86.30
2022-09-23T04:44:56.194Z,86.50
2022-09-23T04:47:23.689Z,86.60
2022-09-23T04:49:51.131Z,86.60
2022-09-23T04:52:18.527Z,86.70
2022-09-23T04:54:52.257Z,86.70
2022-09-23T04:57:19.490Z,86.70
2022-09-23T04:59:50.110Z,86.70
2022-09-23T05:02:18.911Z,86.90
2022-09-23T05:04:46.551Z,86.90
2022-09-23T05:07:14.038Z,86.90
2022-09-23T05:09:42.622Z,86.90
2022-09-23T05:12:10.269Z,86.90
2022-09-23T05:14:38.975Z,86.90
2022-09-23T05:17:06.806Z,87.00
2022-09-23T05:19:34.073Z,87.10
2022-09-23T05:22:01.579Z,87.10
2022-09-23T05:24:29.902Z,87.10
2022-09-23T05:26:57.461Z,87.00
2022-09-23T05:29:24.935Z,86.90
2022-09-23T05:31:52.336Z,86.70
2022-09-23T05:34:20.190Z,86.60
2022-09-23T05:36:47.490Z,86.50
2022-09-23T05:39:14.868Z,86.40
2022-09-23T05:41:47.171Z,86.10
2022-09-23T05:44:15.682Z,85.90
2022-09-23T05:46:42.944Z,85.90
2022-09-23T05:49:12.598Z,85.60
2022-09-23T05:51:39.964Z,85.60
2022-09-23T05:54:08.415Z,85.60
2022-09-23T05:56:37.283Z,85.30
2022-09-23T05:59:06.329Z,84.70
2022-09-23T06:01:37.377Z,85.40
2022-09-23T06:04:08.247Z,84.50
2022-09-23T06:06:42.057Z,84.30
2022-09-23T06:09:15.215Z,84.30
2022-09-23T06:11:43.273Z,84.10
2022-09-23T06:14:14.643Z,84.00
2022-09-23T06:16:43.316Z,83.80
2022-09-23T06:19:10.930Z,83.70
2022-09-23T06:21:40.667Z,83.10
2022-09-23T06:24:09.377Z,82.10
2022-09-23T06:26:38.378Z,82.30
2022-09-23T06:29:14.584Z,81.80
2022-09-23T06:31:42.209Z,81.40
2022-09-23T06:34:14.749Z,81.30
2022-09-23T06:36:45.945Z,81.00
2022-09-23T06:39:17.185Z,80.60
2022-09-23T06:41:45.574Z,80.10
2022-09-23T06:44:14.552Z,79.50
2022-09-23T06:46:42.649Z,79.10
2022-09-23T06:49:12.278Z,78.50
2022-09-23T06:51:40.281Z,77.80
2022-09-23T06:54:09.126Z,77.50
2022-09-23T06:56:39.492Z,76.60
2022-09-23T06:59:10.671Z,77.60
2022-09-23T07:01:38.366Z,76.50
2022-09-23T07:04:16.564Z,76.30
2022-09-23T07:06:43.876Z,75.60
2022-09-23T07:09:11.276Z,75.00
2022-09-23T07:11:40.936Z,74.30
2022-09-23T07:14:08.135Z,74.30
2022-09-23T07:16:36.614Z,74.00
2022-09-23T07:19:03.714Z,73.50
2022-09-23T07:21:31.543Z,72.30
2022-09-23T07:23:59.149Z,73.40
2022-09-23T07:26:26.850Z,72.80
2022-09-23T07:29:04.808Z,73.00
2022-09-23T07:31:39.590Z,73.00
2022-09-23T07:34:11.590Z,72.80
2022-09-23T07:36:41.107Z,72.70
2022-09-23T07:39:12.210Z,72.40
2022-09-23T07:41:43.585Z,71.80
2022-09-23T07:44:11.936Z,71.40
2022-09-23T07:46:40.220Z,71.40
2022-09-23T07:49:08.104Z,71.20
2022-09-23T07:51:38.317Z,71.30
2022-09-23T07:54:10.835Z,70.90
2022-09-23T07:56:39.087Z,70.60
2022-09-23T07:59:10.408Z,70.60
2022-09-23T08:01:44.268Z,70.80
2022-09-23T08:04:23.145Z,70.70
2022-09-23T08:06:54.914Z,70.30
2022-09-23T08:09:27.005Z,70.10
2022-09-23T08:11:55.353Z,70.10
2022-09-23T08:14:22.748Z,69.70
2022-09-23T08:16:50.821Z,69.40
2022-09-23T08:19:20.045Z,69.20
2022-09-23T08:21:48.090Z,68.70
2022-09-23T08:24:19.883Z,68.10
2022-09-23T08:26:48.596Z,67.90
2022-09-23T08:29:19.229Z,67.50
2022-09-23T08:31:47.510Z,68.40
2022-09-23T08:34:16.249Z,67.40
2022-09-23T08:36:43.708Z,67.00
2022-09-23T08:39:16.485Z,66.70
2022-09-23T08:42:02.647Z,66.40
2022-09-23T08:45:03.625Z,66.20
2022-09-23T08:47:52.235Z,66.30
2022-09-23T08:50:39.141Z,66.40
2022-09-23T08:53:17.309Z,66.80
2022-09-23T08:55:49.369Z,66.90
2022-09-23T08:59:07.577Z,67.20
2022-09-23T09:01:49.598Z,67.60
2022-09-23T09:05:06.372Z,67.40
2022-09-23T09:07:38.921Z,67.70
2022-09-23T09:10:48.844Z,67.30
2022-09-23T09:13:49.028Z,67.10
2022-09-23T09:17:00.579Z,67.10
2022-09-23T09:19:40.745Z,66.90
2022-09-23T09:22:21.893Z,66.30
2022-09-23T09:24:50.514Z,65.50
2022-09-23T09:27:19.450Z,65.80
2022-09-23T09:29:53.718Z,65.50
2022-09-23T09:32:48.349Z,65.40
2022-09-23T09:35:45.116Z,64.90
2022-09-23T09:38:12.810Z,64.60
2022-09-23T09:40:49.395Z,64.80
2022-09-23T09:43:23.591Z,64.50
2022-09-23T09:46:38.315Z,64.30
2022-09-23T09:49:23.337Z,63.60
2022-09-23T09:52:29.611Z,63.20
2022-09-23T09:55:25.529Z,63.00
2022-09-23T09:58:05.238Z,62.70
2022-09-23T10:00:44.242Z,62.30
2022-09-23T10:03:14.502Z,61.70
2022-09-23T10:05:47.504Z,61.50
2022-09-23T10:08:26.663Z,61.50
2022-09-23T10:11:18.206Z,61.50
2022-09-23T10:14:20.353Z,60.60
2022-09-23T10:17:05.815Z,61.40
2022-09-23T10:19:35.783Z,60.70
2022-09-23T10:22:10.061Z,61.20
2022-09-23T10:24:41.183Z,60.90
2022-09-23T10:27:12.044Z,60.60
2022-09-23T10:29:48.456Z,60.00
2022-09-23T10:32:31.018Z,59.60
2022-09-23T10:35:14.923Z,58.40
2022-09-23T10:37:50.393Z,57.60
2022-09-23T10:40:57.353Z,56.30
2022-09-23T10:44:17.802Z,55.10
2022-09-23T10:47:38.964Z,54.40
2022-09-23T10:50:29.895Z,53.60
2022-09-23T10:53:54.576Z,53.70
2022-09-23T10:56:43.048Z,52.90
2022-09-23T10:59:48.370Z,52.30
2022-09-23T11:02:44.671Z,51.50
2022-09-23T11:05:21.275Z,50.60
2022-09-23T11:08:19.339Z,51.20
2022-09-23T11:11:28.821Z,50.90
2022-09-23T11:14:21.285Z,49.80
2022-09-23T11:17:15.395Z,50.20
2022-09-23T11:20:03.736Z,50.10
2022-09-23T11:23:09.685Z,49.30
2022-09-23T11:25:56.642Z,48.60
2022-09-23T11:29:10.534Z,48.40
2022-09-23T11:31:59.422Z,47.80
2022-09-23T11:34:55.120Z,47.50
2022-09-23T11:37:33.354Z,47.30
2022-09-23T11:40:07.354Z,47.40
2022-09-23T11:42:52.479Z,47.30
2022-09-23T11:45:30.764Z,47.00
2022-09-23T11:48:06.571Z,46.70
2022-09-23T11:50:46.935Z,47.30
2022-09-23T11:53:47.615Z,47.20
2022-09-23T11:56:35.431Z,47.50
2022-09-23T11:59:55.875Z,47.00
2022-09-23T12:02:59.256Z,47.60
2022-09-23T12:05:41.898Z,47.80
2022-09-23T12:08:39.477Z,48.00
2022-09-23T12:11:40.850Z,48.10
2022-09-23T12:14:41.165Z,48.00
2022-09-23T12:17:14.944Z,47.60
2022-09-23T12:20:09.402Z,47.50
2022-09-23T12:23:01.762Z,47.60
2022-09-23T12:25:46.679Z,47.50
2022-09-23T12:28:41.006Z,47.70
2022-09-23T12:31:31.759Z,47.70
2022-09-23T12:34:04.318Z,47.00
2022-09-23T12:36:35.630Z,46.50
2022-09-23T12:39:15.344Z,46.50
2022-09-23T12:41:48.730Z,45.60
2022-09-23T12:44:42.371Z,45.20
2022-09-23T12:47:15.441Z,44.90
2022-09-23T12:49:43.777Z,44.70
2022-09-23T12:52:32.117Z,44.40
2022-09-23T12:55:22.211Z,44.00
2022-09-23T12:57:50.976Z,42.90
2022-09-23T13:00:28.080Z,43.90
2022-09-23T13:03:19.885Z,43.30
2022-09-23T13:06:12.202Z,43.40
2022-09-23T13:08:42.889Z,42.90
2022-09-23T13:11:28.118Z,43.10
2022-09-23T13:14:00.680Z,42.30
2022-09-23T13:16:32.704Z,42.40
2022-09-23T13:19:07.314Z,42.30
2022-09-23T13:21:43.275Z,41.50
2022-09-23T13:24:13.737Z,41.60
2022-09-23T13:26:53.804Z,41.70
2022-09-23T13:29:49.018Z,41.80
2022-09-23T13:32:21.715Z,41.50
2022-09-23T13:35:17.623Z,41.60
2022-09-23T13:37:48.914Z,41.30
2022-09-23T13:40:29.651Z,41.60
2022-09-23T13:43:12.473Z,41.20
2022-09-23T13:45:43.719Z,40.90
2022-09-23T13:48:16.009Z,40.50
2022-09-23T13:50:53.687Z,40.50
2022-09-23T13:53:27.890Z,40.90
2022-09-23T13:56:06.594Z,40.70
2022-09-23T13:58:36.668Z,40.20
2022-09-23T14:01:10.425Z,40.20
2022-09-23T14:03:39.531Z,40.50
2022-09-23T14:06:16.017Z,40.70
2022-09-23T14:08:49.904Z,40.50
2022-09-23T14:11:21.635Z,40.80
2022-09-23T14:13:57.181Z,40.40
2022-09-23T14:16:28.158Z,40.50
2022-09-23T14:19:00.607Z,40.30
2022-09-23T14:21:39.635Z,40.30
2022-09-23T14:24:29.625Z,40.20
2022-09-23T14:27:15.411Z,40.50
2022-09-23T14:29:48.293Z,40.60
2022-09-23T14:32:27.579Z,40.00
2022-09-23T14:35:00.991Z,39.90
2022-09-23T14:38:00.356Z,40.00
2022-09-23T14:40:50.345Z,40.40
2022-09-23T14:43:24.836Z,40.30
2022-09-23T14:45:58.259Z,40.20
2022-09-23T14:48:35.420Z,40.40
2022-09-23T14:51:07.630Z,40.00
2022-09-23T14:53:46.410Z,40.50
2022-09-23T14:56:21.046Z,40.30
2022-09-23T14:58:58.128Z,40.00
2022-09-23T15:01:31.818Z,40.20
2022-09-23T15:04:24.584Z,40.80
2022-09-23T15:06:58.586Z,41.10
2022-09-23T15:09:36.297Z,41.00
2022-09-23T15:12:20.804Z,40.90
2022-09-23T15:14:56.664Z,40.80
2022-09-23T15:17:43.260Z,40.90
2022-09-23T15:20:16.588Z,41.20
2022-09-23T15:22:54.574Z,41.60
2022-09-23T15:25:35.853Z,41.50
2022-09-23T15:28:10.805Z,41.80
2022-09-23T15:30:39.784Z,42.10
2022-09-23T15:33:12.571Z,42.30
2022-09-23T15:35:48.321Z,42.20
2022-09-23T15:38:17.598Z,42.40
2022-09-23T15:40:45.229Z,42.10
2022-09-23T15:43:27.096Z,41.90
2022-09-23T15:46:05.959Z,41.90
2022-09-23T15:48:42.409Z,42.10
2022-09-23T15:51:13.360Z,42.80
2022-09-23T15:53:40.802Z,43.30
2022-09-23T15:56:07.978Z,43.40
2022-09-23T15:58:35.468Z,43.90
2022-09-23T16:01:04.072Z,44.80
2022-09-23T16:03:31.556Z,45.50
2022-09-23T16:06:03.328Z,46.20
2022-09-23T16:08:33.224Z,46.90
2022-09-23T16:11:01.397Z,47.40
2022-09-23T16:13:29.059Z,47.90
2022-09-23T16:15:59.807Z,48.30
2022-09-23T16:18:27.162Z,48.60
2022-09-23T16:20:54.990Z,49.00
2022-09-23T16:23:38.630Z,49.50
2022-09-23T16:26:31.887Z,49.90
2022-09-23T16:29:00.365Z,50.30
2022-09-23T16:31:31.508Z,50.70
2022-09-23T16:34:02.452Z,51.10
2022-09-23T16:36:41.255Z,51.60
2022-09-23T16:39:12.695Z,52.00
2022-09-23T16:41:40.289Z,52.30
2022-09-23T16:44:09.400Z,52.50
2022-09-23T16:46:36.955Z,52.80
2022-09-23T16:49:04.848Z,53.00
2022-09-23T16:51:40.311Z,53.20
2022-09-23T16:54:12.865Z,53.60
2022-09-23T16:56:46.451Z,53.70
2022-09-23T16:59:16.104Z,53.90
2022-09-23T17:02:02.334Z,54.00
2022-09-23T17:04:29.971Z,54.10
2022-09-23T17:06:57.735Z,54.40
2022-09-23T17:09:28.375Z,54.60
2022-09-23T17:12:24.152Z,54.90
2022-09-23T17:14:52.565Z,55.50
2022-09-23T17:17:19.914Z,55.30
2022-09-23T17:19:47.687Z,55.30
2022-09-23T17:22:15.071Z,55.50
2022-09-23T17:24:42.854Z,55.50
2022-09-23T17:27:10.155Z,55.40
2022-09-23T17:29:37.957Z,55.70
2022-09-23T17:32:05.418Z,55.90
2022-09-23T17:34:33.495Z,55.90
2022-09-23T17:37:02.492Z,56.00
2022-09-23T17:39:29.927Z,56.20
2022-09-23T17:41:58.603Z,56.30
2022-09-23T17:44:26.744Z,56.50
2022-09-23T17:46:53.972Z,56.70
2022-09-23T17:49:22.060Z,56.80
2022-09-23T17:51:49.279Z,57.00
2022-09-23T17:54:16.569Z,57.10
2022-09-23T17:56:43.866Z,57.30
2022-09-23T17:59:15.353Z,57.50
2022-09-23T18:01:42.622Z,57.80
2022-09-23T18:04:09.934Z,57.90
2022-09-23T18:06:38.048Z,58.20
2022-09-23T18:09:09.526Z,58.40
2022-09-23T18:11:40.730Z,58.60
2022-09-23T18:14:13.135Z,59.00
2022-09-23T18:16:43.064Z,59.20
2022-09-23T18:19:19.967Z,59.40
2022-09-23T18:21:54.630Z,59.70
2022-09-23T18:24:37.930Z,59.80
2022-09-23T18:27:06.547Z,60.10
2022-09-23T18:29:34.822Z,60.30
2022-09-23T18:32:03.120Z,60.60
2022-09-23T18:34:30.420Z,60.90
2022-09-23T18:36:57.812Z,61.20
2022-09-23T18:39:25.165Z,60.90
2022-09-23T18:41:52.432Z,61.50
2022-09-23T18:44:20.167Z,62.10
2022-09-23T18:46:47.561Z,62.30
2022-09-23T18:49:33.208Z,62.60
2022-09-23T18:52:00.690Z,62.90
2022-09-23T18:54:29.177Z,63.00
2022-09-23T18:56:56.687Z,63.30
2022-09-23T18:59:28.022Z,63.40
2022-09-23T19:01:56.234Z,63.10
2022-09-23T19:04:27.593Z,63.50
2022-09-23T19:06:56.607Z,63.90
2022-09-23T19:09:25.573Z,63.90
2022-09-23T19:11:53.431Z,64.20
2022-09-23T19:14:21.442Z,64.50
2022-09-23T19:16:52.066Z,64.70
2022-09-23T19:19:19.689Z,64.90
2022-09-23T19:21:47.177Z,65.00
2022-09-23T19:24:19.910Z,65.30
2022-09-23T19:26:47.465Z,65.50
2022-09-23T19:29:19.612Z,65.70
2022-09-23T19:31:47.965Z,65.90
2022-09-23T19:34:23.926Z,66.00
2022-09-23T19:36:57.439Z,66.30
2022-09-23T19:39:28.419Z,66.50
2022-09-23T19:41:56.063Z,66.80
2022-09-23T19:44:25.469Z,66.90
2022-09-23T19:46:56.819Z,67.10
2022-09-23T19:49:25.421Z,67.40
2022-09-23T19:51:55.672Z,67.60
2022-09-23T19:54:26.961Z,67.50
2022-09-23T19:56:54.893Z,67.50
2022-09-23T19:59:22.443Z,67.60
2022-09-23T20:01:49.731Z,68.00
2022-09-23T20:04:17.383Z,68.20
2022-09-23T20:06:46.066Z,68.40
2022-09-23T20:09:13.730Z,68.70
2022-09-23T20:11:43.149Z,68.70
2022-09-23T20:14:11.044Z,69.00
2022-09-23T20:16:38.552Z,69.30
2022-09-23T20:19:06.323Z,69.40
2022-09-23T20:21:34.351Z,69.40
2022-09-23T20:24:04.500Z,69.80
2022-09-23T20:26:50.958Z,69.80
2022-09-23T20:29:18.487Z,70.00
2022-09-23T20:31:46.035Z,70.00
2022-09-23T20:34:13.530Z,70.30
2022-09-23T20:36:41.858Z,70.40
2022-09-23T20:39:10.371Z,70.60
2022-09-23T20:41:39.260Z,70.80
2022-09-23T20:44:13.042Z,70.90
2022-09-23T20:46:48.218Z,70.70
2022-09-23T20:49:18.255Z,70.90
2022-09-23T20:51:48.855Z,71.00
2022-09-23T20:54:19.167Z,71.10
2022-09-23T20:56:47.782Z,71.40
2022-09-23T20:59:17.655Z,71.60
2022-09-23T21:01:45.796Z,71.80
2022-09-23T21:04:13.523Z,71.90
2022-09-23T21:06:40.824Z,72.10
2022-09-23T21:09:08.828Z,72.90
2022-09-23T21:11:36.537Z,72.20
2022-09-23T21:14:04.160Z,72.40
2022-09-23T21:16:31.810Z,72.50
2022-09-23T21:18:59.474Z,72.60
2022-09-23T21:21:27.182Z,72.70
2022-09-23T21:23:56.487Z,72.70
2022-09-23T21:26:31.302Z,72.80
2022-09-23T21:29:00.982Z,72.80
2022-09-23T21:31:38.704Z,73.60
2022-09-23T21:34:10.857Z,73.20
2022-09-23T21:36:42.834Z,73.20
2022-09-23T21:39:12.040Z,73.30
2022-09-23T21:41:40.142Z,73.40
2022-09-23T21:44:08.617Z,73.50
2022-09-23T21:46:36.596Z,73.60
2022-09-23T21:49:05.117Z,73.80
2022-09-23T21:51:46.181Z,73.90
2022-09-23T21:54:17.062Z,73.90
2022-09-23T21:56:44.965Z,74.00
2022-09-23T21:59:12.495Z,74.10
2022-09-23T22:01:44.549Z,74.20
2022-09-23T22:04:18.842Z,74.20
2022-09-23T22:06:48.872Z,74.30
2022-09-23T22:09:20.821Z,75.00
2022-09-23T22:12:07.515Z,74.50
2022-09-23T22:14:35.056Z,74.60
2022-09-23T22:17:05.652Z,74.70
2022-09-23T22:19:40.203Z,74.80
2022-09-23T22:22:13.558Z,74.90
2022-09-23T22:24:44.054Z,74.90
2022-09-23T22:27:14.037Z,75.00
2022-09-23T22:30:00.198Z,75.20
2022-09-23T22:32:43.636Z,75.30
2022-09-23T22:35:18.348Z,75.40
2022-09-23T22:37:46.249Z,75.40
2022-09-23T22:40:15.824Z,75.60
2022-09-23T22:42:43.941Z,75.60
2022-09-23T22:45:12.879Z,75.80
2022-09-23T22:47:45.225Z,75.80
2022-09-23T22:50:14.751Z,75.90
2022-09-23T22:52:42.354Z,76.10
2022-09-23T22:55:10.195Z,76.20
2022-09-23T22:57:38.524Z,76.20
2022-09-23T23:00:07.886Z,76.30
2022-09-23T23:02:35.203Z,76.40
2022-09-23T23:05:02.641Z,76.50
2022-09-23T23:07:29.928Z,76.50
2022-09-23T23:09:58.081Z,76.50
2022-09-23T23:12:25.503Z,76.50
2022-09-23T23:14:52.766Z,76.20
2022-09-23T23:17:20.107Z,76.00
2022-09-23T23:19:48.019Z,75.60
2022-09-23T23:22:15.439Z,75.60
2022-09-23T23:24:43.099Z,75.30
2022-09-23T23:27:10.562Z,75.00
2022-09-23T23:29:37.919Z,74.80
2022-09-23T23:32:06.087Z,75.30
2022-09-23T23:34:33.376Z,74.60
2022-09-23T23:37:00.904Z,74.20
2022-09-23T23:39:28.156Z,74.20
2022-09-23T23:41:58.270Z,74.00
2022-09-23T23:44:27.228Z,73.60
2022-09-23T23:46:55.269Z,73.50
2022-09-23T23:49:23.070Z,73.20
2022-09-23T23:51:50.464Z,73.10
2022-09-23T23:54:17.829Z,73.00
2022-09-23T23:56:45.503Z,72.70
2022-09-23T23:59:12.930Z,72.50
